sensor_id;sensor_type;location;lat;lon;timestamp;temperature;humidity
22738;DHT22;11536;50.860;4.286;2024-03-07T00:00:20;7.40;99.90
22738;DHT22;11536;50.860;4.286;2024-03-07T00:02:51;7.40;99.90
22738;DHT22;11536;50.860;4.286;2024-03-07T00:05:21;7.40;99.90
22738;DHT22;11536;50.860;4.286;2024-03-07T00:07:49;7.40;99.90
22738;DHT22;11536;50.860;4.286;2024-03-07T00:10:15;7.30;99.90
22738;DHT22;11536;50.860;4.286;2024-03-07T00:12:42;7.40;99.90
22738;DHT22;11536;50.860;4.286;2024-03-07T00:15:10;7.40;99.90
22738;DHT22;11536;50.860;4.286;2024-03-07T00:17:39;7.40;99.90
22738;DHT22;11536;50.860;4.286;2024-03-07T00:20:06;7.30;99.90
22738;DHT22;11536;50.860;4.286;2024-03-07T00:22:35;7.40;99.90
22738;DHT22;11536;50.860;4.286;2024-03-07T00:25:01;7.40;99.90
22738;DHT22;11536;50.860;4.286;2024-03-07T00:27:27;7.40;99.90
22738;DHT22;11536;50.860;4.286;2024-03-07T00:29:53;7.40;99.90
22738;DHT22;11536;50.860;4.286;2024-03-07T00:32:22;7.30;99.90
22738;DHT22;11536;50.860;4.286;2024-03-07T00:34:49;7.40;99.90
22738;DHT22;11536;50.860;4.286;2024-03-07T00:37:15;7.30;99.90
22738;DHT22;11536;50.860;4.286;2024-03-07T00:39:41;7.40;99.90
22738;DHT22;11536;50.860;4.286;2024-03-07T00:42:07;7.40;99.90
22738;DHT22;11536;50.860;4.286;2024-03-07T00:44:33;7.40;99.90
22738;DHT22;11536;50.860;4.286;2024-03-07T00:47:00;7.50;99.90
22738;DHT22;11536;50.860;4.286;2024-03-07T00:49:27;7.40;99.90
22738;DHT22;11536;50.860;4.286;2024-03-07T00:51:53;7.50;99.90
22738;DHT22;11536;50.860;4.286;2024-03-07T00:54:19;7.40;99.90
22738;DHT22;11536;50.860;4.286;2024-03-07T00:56:45;7.50;99.90
22738;DHT22;11536;50.860;4.286;2024-03-07T00:59:14;7.40;99.90
22738;DHT22;11536;50.860;4.286;2024-03-07T01:01:40;7.40;99.90
22738;DHT22;11536;50.860;4.286;2024-03-07T01:04:07;7.40;99.90
22738;DHT22;11536;50.860;4.286;2024-03-07T01:06:33;7.50;99.90
22738;DHT22;11536;50.860;4.286;2024-03-07T01:08:59;7.50;99.90
22738;DHT22;11536;50.860;4.286;2024-03-07T01:11:24;7.50;99.90
22738;DHT22;11536;50.860;4.286;2024-03-07T01:13:50;7.40;99.90
22738;DHT22;11536;50.860;4.286;2024-03-07T01:16:16;7.50;99.90
22738;DHT22;11536;50.860;4.286;2024-03-07T01:18:41;7.40;99.90
22738;DHT22;11536;50.860;4.286;2024-03-07T01:21:07;7.50;99.90
22738;DHT22;11536;50.860;4.286;2024-03-07T01:23:33;7.40;99.90
22738;DHT22;11536;50.860;4.286;2024-03-07T01:25:59;7.40;99.90
22738;DHT22;11536;50.860;4.286;2024-03-07T01:28:26;7.40;99.90
22738;DHT22;11536;50.860;4.286;2024-03-07T01:30:55;7.40;99.90
22738;DHT22;11536;50.860;4.286;2024-03-07T01:33:21;7.40;99.90
22738;DHT22;11536;50.860;4.286;2024-03-07T01:35:47;7.40;99.90
22738;DHT22;11536;50.860;4.286;2024-03-07T01:38:14;7.40;99.90
22738;DHT22;11536;50.860;4.286;2024-03-07T01:40:40;7.40;99.90
22738;DHT22;11536;50.860;4.286;2024-03-07T01:43:07;7.40;99.90
22738;DHT22;11536;50.860;4.286;2024-03-07T01:45:33;7.40;99.90
22738;DHT22;11536;50.860;4.286;2024-03-07T01:47:59;7.40;99.90
22738;DHT22;11536;50.860;4.286;2024-03-07T01:50:25;7.30;99.90
22738;DHT22;11536;50.860;4.286;2024-03-07T01:52:51;7.30;99.90
22738;DHT22;11536;50.860;4.286;2024-03-07T01:55:18;7.30;99.90
22738;DHT22;11536;50.860;4.286;2024-03-07T01:57:44;7.30;99.90
22738;DHT22;11536;50.860;4.286;2024-03-07T02:00:11;7.30;99.90
22738;DHT22;11536;50.860;4.286;2024-03-07T02:02:37;7.30;99.90
22738;DHT22;11536;50.860;4.286;2024-03-07T02:05:03;7.30;99.90
22738;DHT22;11536;50.860;4.286;2024-03-07T02:07:29;7.30;99.90
22738;DHT22;11536;50.860;4.286;2024-03-07T02:10:05;7.30;99.90
22738;DHT22;11536;50.860;4.286;2024-03-07T02:12:31;7.30;99.90
22738;DHT22;11536;50.860;4.286;2024-03-07T02:14:57;7.30;99.90
22738;DHT22;11536;50.860;4.286;2024-03-07T02:17:26;7.30;99.90
22738;DHT22;11536;50.860;4.286;2024-03-07T02:19:52;7.30;99.90
22738;DHT22;11536;50.860;4.286;2024-03-07T02:22:19;7.20;99.90
22738;DHT22;11536;50.860;4.286;2024-03-07T02:24:45;7.20;99.90
22738;DHT22;11536;50.860;4.286;2024-03-07T02:27:11;7.20;99.90
22738;DHT22;11536;50.860;4.286;2024-03-07T02:29:37;7.20;99.90
22738;DHT22;11536;50.860;4.286;2024-03-07T02:32:03;7.20;99.90
22738;DHT22;11536;50.860;4.286;2024-03-07T02:34:29;7.20;99.90
22738;DHT22;11536;50.860;4.286;2024-03-07T02:36:55;7.20;99.90
22738;DHT22;11536;50.860;4.286;2024-03-07T02:39:21;7.20;99.90
22738;DHT22;11536;50.860;4.286;2024-03-07T02:41:47;7.20;99.90
22738;DHT22;11536;50.860;4.286;2024-03-07T02:44:16;7.20;99.90
22738;DHT22;11536;50.860;4.286;2024-03-07T02:46:42;7.10;99.90
22738;DHT22;11536;50.860;4.286;2024-03-07T02:49:07;7.10;99.90
22738;DHT22;11536;50.860;4.286;2024-03-07T02:51:33;7.10;99.90
22738;DHT22;11536;50.860;4.286;2024-03-07T02:53:59;7.10;99.90
22738;DHT22;11536;50.860;4.286;2024-03-07T02:56:24;7.10;99.90
22738;DHT22;11536;50.860;4.286;2024-03-07T02:58:51;7.10;99.90
22738;DHT22;11536;50.860;4.286;2024-03-07T03:01:17;7.10;99.90
22738;DHT22;11536;50.860;4.286;2024-03-07T03:03:43;7.10;99.90
22738;DHT22;11536;50.860;4.286;2024-03-07T03:06:09;7.10;99.90
22738;DHT22;11536;50.860;4.286;2024-03-07T03:08:35;7.10;99.90
22738;DHT22;11536;50.860;4.286;2024-03-07T03:11:01;7.10;99.90
22738;DHT22;11536;50.860;4.286;2024-03-07T03:13:26;7.10;99.90
22738;DHT22;11536;50.860;4.286;2024-03-07T03:15:55;7.10;99.90
22738;DHT22;11536;50.860;4.286;2024-03-07T03:18:22;7.10;99.90
22738;DHT22;11536;50.860;4.286;2024-03-07T03:20:49;7.10;99.90
22738;DHT22;11536;50.860;4.286;2024-03-07T03:23:14;7.10;99.90
22738;DHT22;11536;50.860;4.286;2024-03-07T03:25:41;7.10;99.90
22738;DHT22;11536;50.860;4.286;2024-03-07T03:28:07;7.10;99.90
22738;DHT22;11536;50.860;4.286;2024-03-07T03:30:40;7.10;99.90
22738;DHT22;11536;50.860;4.286;2024-03-07T03:33:07;7.10;99.90
22738;DHT22;11536;50.860;4.286;2024-03-07T03:35:33;7.10;99.90
22738;DHT22;11536;50.860;4.286;2024-03-07T03:37:59;7.00;99.90
22738;DHT22;11536;50.860;4.286;2024-03-07T03:40:25;7.00;99.90
22738;DHT22;11536;50.860;4.286;2024-03-07T03:42:51;7.00;99.90
22738;DHT22;11536;50.860;4.286;2024-03-07T03:45:17;7.00;99.90
22738;DHT22;11536;50.860;4.286;2024-03-07T03:47:43;7.00;99.90
22738;DHT22;11536;50.860;4.286;2024-03-07T03:50:10;7.00;99.90
22738;DHT22;11536;50.860;4.286;2024-03-07T03:52:37;6.90;99.90
22738;DHT22;11536;50.860;4.286;2024-03-07T03:55:04;6.90;99.90
22738;DHT22;11536;50.860;4.286;2024-03-07T03:57:31;6.90;99.90
22738;DHT22;11536;50.860;4.286;2024-03-07T03:59:57;6.90;99.90
22738;DHT22;11536;50.860;4.286;2024-03-07T04:02:23;6.90;99.90
22738;DHT22;11536;50.860;4.286;2024-03-07T04:04:49;6.90;99.90
22738;DHT22;11536;50.860;4.286;2024-03-07T04:07:15;6.90;99.90
22738;DHT22;11536;50.860;4.286;2024-03-07T04:09:45;6.90;99.90
22738;DHT22;11536;50.860;4.286;2024-03-07T04:12:11;6.90;99.90
22738;DHT22;11536;50.860;4.286;2024-03-07T04:14:40;6.80;99.90
22738;DHT22;11536;50.860;4.286;2024-03-07T04:17:07;6.80;99.90
22738;DHT22;11536;50.860;4.286;2024-03-07T04:19:36;6.80;99.90
22738;DHT22;11536;50.860;4.286;2024-03-07T04:22:04;6.80;99.90
22738;DHT22;11536;50.860;4.286;2024-03-07T04:24:32;6.70;99.90
22738;DHT22;11536;50.860;4.286;2024-03-07T04:26:59;6.70;99.90
22738;DHT22;11536;50.860;4.286;2024-03-07T04:29:25;6.70;99.90
22738;DHT22;11536;50.860;4.286;2024-03-07T04:31:51;6.70;99.90
22738;DHT22;11536;50.860;4.286;2024-03-07T04:34:17;6.70;99.90
22738;DHT22;11536;50.860;4.286;2024-03-07T04:36:42;6.60;99.90
22738;DHT22;11536;50.860;4.286;2024-03-07T04:39:08;6.60;99.90
22738;DHT22;11536;50.860;4.286;2024-03-07T04:41:48;6.60;99.90
22738;DHT22;11536;50.860;4.286;2024-03-07T04:44:13;6.50;99.90
22738;DHT22;11536;50.860;4.286;2024-03-07T04:46:39;6.60;99.90
22738;DHT22;11536;50.860;4.286;2024-03-07T04:49:08;6.50;99.90
22738;DHT22;11536;50.860;4.286;2024-03-07T04:51:34;6.50;99.90
22738;DHT22;11536;50.860;4.286;2024-03-07T04:54:00;6.50;99.90
22738;DHT22;11536;50.860;4.286;2024-03-07T04:56:25;6.40;99.90
22738;DHT22;11536;50.860;4.286;2024-03-07T04:58:51;6.40;99.90
22738;DHT22;11536;50.860;4.286;2024-03-07T05:01:18;6.40;99.90
22738;DHT22;11536;50.860;4.286;2024-03-07T05:03:43;6.40;99.90
22738;DHT22;11536;50.860;4.286;2024-03-07T05:06:09;6.40;99.90
22738;DHT22;11536;50.860;4.286;2024-03-07T05:08:34;6.40;99.90
22738;DHT22;11536;50.860;4.286;2024-03-07T05:11:00;6.40;99.90
22738;DHT22;11536;50.860;4.286;2024-03-07T05:13:26;6.40;99.90
22738;DHT22;11536;50.860;4.286;2024-03-07T05:15:51;6.40;99.90
22738;DHT22;11536;50.860;4.286;2024-03-07T05:18:18;6.40;99.90
22738;DHT22;11536;50.860;4.286;2024-03-07T05:20:44;6.30;99.90
22738;DHT22;11536;50.860;4.286;2024-03-07T05:23:09;6.30;99.90
22738;DHT22;11536;50.860;4.286;2024-03-07T05:25:36;6.30;99.90
22738;DHT22;11536;50.860;4.286;2024-03-07T05:28:01;6.30;99.90
22738;DHT22;11536;50.860;4.286;2024-03-07T05:30:28;6.30;99.90
22738;DHT22;11536;50.860;4.286;2024-03-07T05:32:54;6.30;99.90
22738;DHT22;11536;50.860;4.286;2024-03-07T05:35:21;6.30;99.90
22738;DHT22;11536;50.860;4.286;2024-03-07T05:37:46;6.30;99.90
22738;DHT22;11536;50.860;4.286;2024-03-07T05:40:12;6.30;99.90
22738;DHT22;11536;50.860;4.286;2024-03-07T05:42:38;6.20;99.90
22738;DHT22;11536;50.860;4.286;2024-03-07T05:45:04;6.20;99.90
22738;DHT22;11536;50.860;4.286;2024-03-07T05:47:33;6.30;99.90
22738;DHT22;11536;50.860;4.286;2024-03-07T05:49:59;6.20;99.90
22738;DHT22;11536;50.860;4.286;2024-03-07T05:52:25;6.20;99.90
22738;DHT22;11536;50.860;4.286;2024-03-07T05:54:50;6.20;99.90
22738;DHT22;11536;50.860;4.286;2024-03-07T05:57:16;6.20;99.90
22738;DHT22;11536;50.860;4.286;2024-03-07T05:59:41;6.20;99.90
22738;DHT22;11536;50.860;4.286;2024-03-07T06:02:07;6.20;99.90
22738;DHT22;11536;50.860;4.286;2024-03-07T06:04:33;6.10;99.90
22738;DHT22;11536;50.860;4.286;2024-03-07T06:06:59;6.10;99.90
22738;DHT22;11536;50.860;4.286;2024-03-07T06:09:25;6.10;99.90
22738;DHT22;11536;50.860;4.286;2024-03-07T06:11:52;6.00;99.90
22738;DHT22;11536;50.860;4.286;2024-03-07T06:14:17;6.10;99.90
22738;DHT22;11536;50.860;4.286;2024-03-07T06:16:43;6.10;99.90
22738;DHT22;11536;50.860;4.286;2024-03-07T06:19:09;6.10;99.90
22738;DHT22;11536;50.860;4.286;2024-03-07T06:21:36;6.10;99.90
22738;DHT22;11536;50.860;4.286;2024-03-07T06:24:03;6.10;99.90
22738;DHT22;11536;50.860;4.286;2024-03-07T06:26:36;6.10;99.90
22738;DHT22;11536;50.860;4.286;2024-03-07T06:29:37;6.00;99.90
22738;DHT22;11536;50.860;4.286;2024-03-07T06:32:03;6.10;99.90
22738;DHT22;11536;50.860;4.286;2024-03-07T06:34:28;6.10;99.90
22738;DHT22;11536;50.860;4.286;2024-03-07T06:36:56;6.10;99.90
22738;DHT22;11536;50.860;4.286;2024-03-07T06:39:21;6.10;99.90
22738;DHT22;11536;50.860;4.286;2024-03-07T06:41:47;6.10;99.90
22738;DHT22;11536;50.860;4.286;2024-03-07T06:44:13;6.10;99.90
22738;DHT22;11536;50.860;4.286;2024-03-07T06:46:38;6.10;99.90
22738;DHT22;11536;50.860;4.286;2024-03-07T06:49:04;6.10;99.90
22738;DHT22;11536;50.860;4.286;2024-03-07T06:51:35;6.00;99.90
22738;DHT22;11536;50.860;4.286;2024-03-07T06:54:01;6.00;99.90
22738;DHT22;11536;50.860;4.286;2024-03-07T06:56:26;6.00;99.90
22738;DHT22;11536;50.860;4.286;2024-03-07T06:58:52;6.00;99.90
22738;DHT22;11536;50.860;4.286;2024-03-07T07:01:18;6.00;99.90
22738;DHT22;11536;50.860;4.286;2024-03-07T07:03:44;6.00;99.90
22738;DHT22;11536;50.860;4.286;2024-03-07T07:06:11;6.00;99.90
22738;DHT22;11536;50.860;4.286;2024-03-07T07:08:37;6.00;99.90
22738;DHT22;11536;50.860;4.286;2024-03-07T07:11:02;6.00;99.90
22738;DHT22;11536;50.860;4.286;2024-03-07T07:13:29;6.10;99.90
22738;DHT22;11536;50.860;4.286;2024-03-07T07:15:55;6.10;99.90
22738;DHT22;11536;50.860;4.286;2024-03-07T07:18:21;6.10;99.90
22738;DHT22;11536;50.860;4.286;2024-03-07T07:20:49;6.10;99.90
22738;DHT22;11536;50.860;4.286;2024-03-07T07:23:17;6.00;99.90
22738;DHT22;11536;50.860;4.286;2024-03-07T07:25:43;6.00;99.90
22738;DHT22;11536;50.860;4.286;2024-03-07T07:28:09;6.00;99.90
22738;DHT22;11536;50.860;4.286;2024-03-07T07:30:36;6.00;99.90
22738;DHT22;11536;50.860;4.286;2024-03-07T07:33:02;6.00;99.90
22738;DHT22;11536;50.860;4.286;2024-03-07T07:35:28;6.00;99.90
22738;DHT22;11536;50.860;4.286;2024-03-07T07:37:54;6.00;99.90
22738;DHT22;11536;50.860;4.286;2024-03-07T07:40:22;6.00;99.90
22738;DHT22;11536;50.860;4.286;2024-03-07T07:42:52;6.00;99.90
22738;DHT22;11536;50.860;4.286;2024-03-07T07:45:19;5.90;99.90
22738;DHT22;11536;50.860;4.286;2024-03-07T07:47:47;6.00;99.90
22738;DHT22;11536;50.860;4.286;2024-03-07T07:50:22;6.00;99.90
22738;DHT22;11536;50.860;4.286;2024-03-07T07:52:50;6.00;99.90
22738;DHT22;11536;50.860;4.286;2024-03-07T07:55:29;6.00;99.90
22738;DHT22;11536;50.860;4.286;2024-03-07T07:58:00;6.00;99.90
22738;DHT22;11536;50.860;4.286;2024-03-07T08:00:33;5.90;99.90
22738;DHT22;11536;50.860;4.286;2024-03-07T08:03:32;6.00;99.90
22738;DHT22;11536;50.860;4.286;2024-03-07T08:06:00;6.00;99.90
22738;DHT22;11536;50.860;4.286;2024-03-07T08:08:31;6.10;99.90
22738;DHT22;11536;50.860;4.286;2024-03-07T08:11:04;6.00;99.90
22738;DHT22;11536;50.860;4.286;2024-03-07T08:13:32;6.10;99.90
22738;DHT22;11536;50.860;4.286;2024-03-07T08:15:58;6.00;99.90
22738;DHT22;11536;50.860;4.286;2024-03-07T08:18:24;6.00;99.90
22738;DHT22;11536;50.860;4.286;2024-03-07T08:20:50;6.00;99.90
22738;DHT22;11536;50.860;4.286;2024-03-07T08:23:17;6.00;99.90
22738;DHT22;11536;50.860;4.286;2024-03-07T08:25:42;6.10;99.90
22738;DHT22;11536;50.860;4.286;2024-03-07T08:28:08;6.00;99.90
22738;DHT22;11536;50.860;4.286;2024-03-07T08:30:34;6.00;99.90
22738;DHT22;11536;50.860;4.286;2024-03-07T08:33:00;6.10;99.90
22738;DHT22;11536;50.860;4.286;2024-03-07T08:35:28;6.10;99.90
22738;DHT22;11536;50.860;4.286;2024-03-07T08:37:57;6.10;99.90
22738;DHT22;11536;50.860;4.286;2024-03-07T08:40:24;6.10;99.90
22738;DHT22;11536;50.860;4.286;2024-03-07T08:42:52;6.10;99.90
22738;DHT22;11536;50.860;4.286;2024-03-07T08:45:19;6.10;99.90
22738;DHT22;11536;50.860;4.286;2024-03-07T08:47:50;6.10;99.90
22738;DHT22;11536;50.860;4.286;2024-03-07T08:50:16;6.10;99.90
22738;DHT22;11536;50.860;4.286;2024-03-07T08:52:44;6.20;99.90
22738;DHT22;11536;50.860;4.286;2024-03-07T08:55:12;6.30;99.90
22738;DHT22;11536;50.860;4.286;2024-03-07T08:57:41;6.40;99.90
22738;DHT22;11536;50.860;4.286;2024-03-07T09:00:07;6.40;99.90
22738;DHT22;11536;50.860;4.286;2024-03-07T09:02:38;6.40;99.90
22738;DHT22;11536;50.860;4.286;2024-03-07T09:05:04;6.40;99.90
22738;DHT22;11536;50.860;4.286;2024-03-07T09:07:30;6.40;99.90
22738;DHT22;11536;50.860;4.286;2024-03-07T09:09:57;6.30;99.90
22738;DHT22;11536;50.860;4.286;2024-03-07T09:12:22;6.40;99.90
22738;DHT22;11536;50.860;4.286;2024-03-07T09:14:50;6.50;99.90
22738;DHT22;11536;50.860;4.286;2024-03-07T09:17:17;6.60;99.90
22738;DHT22;11536;50.860;4.286;2024-03-07T09:19:43;6.70;99.90
22738;DHT22;11536;50.860;4.286;2024-03-07T09:22:09;6.80;99.90
22738;DHT22;11536;50.860;4.286;2024-03-07T09:24:34;6.80;99.90
22738;DHT22;11536;50.860;4.286;2024-03-07T09:27:00;6.90;99.90
22738;DHT22;11536;50.860;4.286;2024-03-07T09:29:26;7.00;99.90
22738;DHT22;11536;50.860;4.286;2024-03-07T09:31:53;7.00;99.90
22738;DHT22;11536;50.860;4.286;2024-03-07T09:34:20;6.90;99.90
22738;DHT22;11536;50.860;4.286;2024-03-07T09:36:49;6.90;99.90
22738;DHT22;11536;50.860;4.286;2024-03-07T09:39:16;7.00;99.90
22738;DHT22;11536;50.860;4.286;2024-03-07T09:41:42;7.00;99.90
22738;DHT22;11536;50.860;4.286;2024-03-07T09:44:19;7.00;99.90
22738;DHT22;11536;50.860;4.286;2024-03-07T09:46:54;7.10;99.90
22738;DHT22;11536;50.860;4.286;2024-03-07T09:49:20;7.20;99.90
22738;DHT22;11536;50.860;4.286;2024-03-07T09:51:47;7.20;99.90
22738;DHT22;11536;50.860;4.286;2024-03-07T09:54:13;7.20;99.90
22738;DHT22;11536;50.860;4.286;2024-03-07T09:56:41;7.10;99.90
22738;DHT22;11536;50.860;4.286;2024-03-07T09:59:11;7.20;99.90
22738;DHT22;11536;50.860;4.286;2024-03-07T10:01:38;7.30;99.90
22738;DHT22;11536;50.860;4.286;2024-03-07T10:04:09;7.30;99.90
22738;DHT22;11536;50.860;4.286;2024-03-07T10:06:38;7.40;99.90
22738;DHT22;11536;50.860;4.286;2024-03-07T10:09:07;7.50;99.90
22738;DHT22;11536;50.860;4.286;2024-03-07T10:11:33;7.50;99.90
22738;DHT22;11536;50.860;4.286;2024-03-07T10:14:02;7.60;99.90
22738;DHT22;11536;50.860;4.286;2024-03-07T10:16:31;7.60;99.90
22738;DHT22;11536;50.860;4.286;2024-03-07T10:18:58;7.60;99.90
22738;DHT22;11536;50.860;4.286;2024-03-07T10:21:23;7.70;99.90
22738;DHT22;11536;50.860;4.286;2024-03-07T10:23:50;7.70;99.90
22738;DHT22;11536;50.860;4.286;2024-03-07T10:26:18;7.70;99.90
22738;DHT22;11536;50.860;4.286;2024-03-07T10:28:44;7.80;99.90
22738;DHT22;11536;50.860;4.286;2024-03-07T10:31:09;7.80;99.90
22738;DHT22;11536;50.860;4.286;2024-03-07T10:33:40;7.90;99.90
22738;DHT22;11536;50.860;4.286;2024-03-07T10:36:06;7.90;99.90
22738;DHT22;11536;50.860;4.286;2024-03-07T10:38:38;7.90;99.90
22738;DHT22;11536;50.860;4.286;2024-03-07T10:41:06;8.00;99.90
22738;DHT22;11536;50.860;4.286;2024-03-07T10:43:36;8.10;99.90
22738;DHT22;11536;50.860;4.286;2024-03-07T10:46:05;8.10;99.90
22738;DHT22;11536;50.860;4.286;2024-03-07T10:48:37;8.20;99.90
22738;DHT22;11536;50.860;4.286;2024-03-07T10:51:32;8.30;99.90
22738;DHT22;11536;50.860;4.286;2024-03-07T10:54:20;8.40;99.90
22738;DHT22;11536;50.860;4.286;2024-03-07T10:59:17;8.60;99.90
22738;DHT22;11536;50.860;4.286;2024-03-07T11:02:20;8.70;99.90
22738;DHT22;11536;50.860;4.286;2024-03-07T11:04:56;8.70;99.90
22738;DHT22;11536;50.860;4.286;2024-03-07T11:07:23;8.80;99.90
22738;DHT22;11536;50.860;4.286;2024-03-07T11:09:49;8.90;99.90
22738;DHT22;11536;50.860;4.286;2024-03-07T11:12:19;9.00;99.90
22738;DHT22;11536;50.860;4.286;2024-03-07T11:14:49;9.10;99.90
22738;DHT22;11536;50.860;4.286;2024-03-07T11:17:16;9.10;99.90
22738;DHT22;11536;50.860;4.286;2024-03-07T11:19:44;9.20;99.90
22738;DHT22;11536;50.860;4.286;2024-03-07T11:22:11;9.30;99.90
22738;DHT22;11536;50.860;4.286;2024-03-07T11:24:41;9.40;99.90
22738;DHT22;11536;50.860;4.286;2024-03-07T11:27:10;9.50;99.90
22738;DHT22;11536;50.860;4.286;2024-03-07T11:32:12;9.70;99.90
22738;DHT22;11536;50.860;4.286;2024-03-07T11:34:44;9.70;99.90
22738;DHT22;11536;50.860;4.286;2024-03-07T11:37:37;9.80;99.90
22738;DHT22;11536;50.860;4.286;2024-03-07T11:40:07;10.00;99.90
22738;DHT22;11536;50.860;4.286;2024-03-07T11:42:33;10.10;99.90
22738;DHT22;11536;50.860;4.286;2024-03-07T11:45:01;10.20;99.90
22738;DHT22;11536;50.860;4.286;2024-03-07T11:47:38;10.30;99.90
22738;DHT22;11536;50.860;4.286;2024-03-07T11:50:05;10.30;99.90
22738;DHT22;11536;50.860;4.286;2024-03-07T11:52:36;10.40;99.90
22738;DHT22;11536;50.860;4.286;2024-03-07T11:55:04;10.40;99.90
22738;DHT22;11536;50.860;4.286;2024-03-07T11:57:30;10.50;99.90
22738;DHT22;11536;50.860;4.286;2024-03-07T11:59:59;10.60;99.90
22738;DHT22;11536;50.860;4.286;2024-03-07T12:02:40;10.60;99.90
22738;DHT22;11536;50.860;4.286;2024-03-07T12:05:06;10.60;99.90
22738;DHT22;11536;50.860;4.286;2024-03-07T12:07:32;10.60;99.90
22738;DHT22;11536;50.860;4.286;2024-03-07T12:09:59;10.60;99.90
22738;DHT22;11536;50.860;4.286;2024-03-07T12:12:25;10.60;99.90
22738;DHT22;11536;50.860;4.286;2024-03-07T12:14:54;10.70;99.90
22738;DHT22;11536;50.860;4.286;2024-03-07T12:17:20;10.70;99.90
22738;DHT22;11536;50.860;4.286;2024-03-07T12:19:47;10.70;99.90
22738;DHT22;11536;50.860;4.286;2024-03-07T12:22:13;10.80;99.90
22738;DHT22;11536;50.860;4.286;2024-03-07T12:24:39;10.90;99.90
22738;DHT22;11536;50.860;4.286;2024-03-07T12:27:12;10.90;99.90
22738;DHT22;11536;50.860;4.286;2024-03-07T12:29:42;10.90;99.90
22738;DHT22;11536;50.860;4.286;2024-03-07T12:32:09;10.90;99.90
22738;DHT22;11536;50.860;4.286;2024-03-07T12:34:39;10.90;99.90
22738;DHT22;11536;50.860;4.286;2024-03-07T12:37:08;10.90;99.90
22738;DHT22;11536;50.860;4.286;2024-03-07T12:39:35;11.00;99.90
22738;DHT22;11536;50.860;4.286;2024-03-07T12:42:03;11.00;99.90
22738;DHT22;11536;50.860;4.286;2024-03-07T12:44:42;11.10;99.90
22738;DHT22;11536;50.860;4.286;2024-03-07T12:47:15;11.20;99.90
22738;DHT22;11536;50.860;4.286;2024-03-07T12:49:44;11.30;99.90
22738;DHT22;11536;50.860;4.286;2024-03-07T12:52:11;11.50;99.90
22738;DHT22;11536;50.860;4.286;2024-03-07T12:54:41;11.60;99.90
22738;DHT22;11536;50.860;4.286;2024-03-07T12:57:07;11.70;99.90
22738;DHT22;11536;50.860;4.286;2024-03-07T12:59:35;11.80;99.90
22738;DHT22;11536;50.860;4.286;2024-03-07T13:02:03;12.10;99.90
22738;DHT22;11536;50.860;4.286;2024-03-07T13:04:32;12.10;99.90
22738;DHT22;11536;50.860;4.286;2024-03-07T13:06:58;12.10;99.90
22738;DHT22;11536;50.860;4.286;2024-03-07T13:09:26;12.10;99.90
22738;DHT22;11536;50.860;4.286;2024-03-07T13:11:57;12.00;99.90
22738;DHT22;11536;50.860;4.286;2024-03-07T13:14:22;11.90;99.90
22738;DHT22;11536;50.860;4.286;2024-03-07T13:16:48;11.90;99.90
22738;DHT22;11536;50.860;4.286;2024-03-07T13:19:15;11.90;99.90
22738;DHT22;11536;50.860;4.286;2024-03-07T13:21:46;11.90;99.90
22738;DHT22;11536;50.860;4.286;2024-03-07T13:24:13;11.70;99.90
22738;DHT22;11536;50.860;4.286;2024-03-07T13:26:39;11.70;99.90
22738;DHT22;11536;50.860;4.286;2024-03-07T13:29:05;11.70;99.90
22738;DHT22;11536;50.860;4.286;2024-03-07T13:31:31;11.70;99.90
22738;DHT22;11536;50.860;4.286;2024-03-07T13:33:56;11.60;99.90
22738;DHT22;11536;50.860;4.286;2024-03-07T13:36:22;11.80;99.90
22738;DHT22;11536;50.860;4.286;2024-03-07T13:38:52;11.80;99.90
22738;DHT22;11536;50.860;4.286;2024-03-07T13:41:20;11.80;99.90
22738;DHT22;11536;50.860;4.286;2024-03-07T13:43:45;11.70;99.90
22738;DHT22;11536;50.860;4.286;2024-03-07T13:46:11;11.70;99.90
22738;DHT22;11536;50.860;4.286;2024-03-07T13:48:40;11.80;99.90
22738;DHT22;11536;50.860;4.286;2024-03-07T13:51:08;11.90;99.90
22738;DHT22;11536;50.860;4.286;2024-03-07T13:53:35;11.90;99.90
22738;DHT22;11536;50.860;4.286;2024-03-07T14:01:58;11.80;99.90
22738;DHT22;11536;50.860;4.286;2024-03-07T14:04:43;11.90;99.90
22738;DHT22;11536;50.860;4.286;2024-03-07T14:16:57;12.10;99.90
22738;DHT22;11536;50.860;4.286;2024-03-07T14:31:06;12.10;99.90
22738;DHT22;11536;50.860;4.286;2024-03-07T14:34:12;12.00;99.90
22738;DHT22;11536;50.860;4.286;2024-03-07T14:36:52;11.90;99.90
22738;DHT22;11536;50.860;4.286;2024-03-07T14:39:19;11.80;99.90
22738;DHT22;11536;50.860;4.286;2024-03-07T14:44:47;11.80;99.90
22738;DHT22;11536;50.860;4.286;2024-03-07T14:47:15;11.70;99.90
22738;DHT22;11536;50.860;4.286;2024-03-07T14:49:44;11.60;99.90
22738;DHT22;11536;50.860;4.286;2024-03-07T14:52:10;11.70;99.90
22738;DHT22;11536;50.860;4.286;2024-03-07T14:54:37;11.60;99.90
22738;DHT22;11536;50.860;4.286;2024-03-07T14:57:04;11.50;99.90
22738;DHT22;11536;50.860;4.286;2024-03-07T14:59:31;11.50;99.90
22738;DHT22;11536;50.860;4.286;2024-03-07T15:01:57;11.50;99.90
22738;DHT22;11536;50.860;4.286;2024-03-07T15:04:26;11.50;99.90
22738;DHT22;11536;50.860;4.286;2024-03-07T15:06:53;11.50;99.90
22738;DHT22;11536;50.860;4.286;2024-03-07T15:09:22;11.50;99.90
22738;DHT22;11536;50.860;4.286;2024-03-07T15:11:48;11.50;99.90
22738;DHT22;11536;50.860;4.286;2024-03-07T15:14:14;11.50;99.90
22738;DHT22;11536;50.860;4.286;2024-03-07T15:16:41;11.40;99.90
22738;DHT22;11536;50.860;4.286;2024-03-07T15:19:08;11.40;99.90
22738;DHT22;11536;50.860;4.286;2024-03-07T15:21:37;11.40;99.90
22738;DHT22;11536;50.860;4.286;2024-03-07T15:24:03;11.50;99.90
22738;DHT22;11536;50.860;4.286;2024-03-07T15:26:29;11.50;99.90
22738;DHT22;11536;50.860;4.286;2024-03-07T15:28:56;11.40;99.90
22738;DHT22;11536;50.860;4.286;2024-03-07T15:31:26;11.50;99.90
22738;DHT22;11536;50.860;4.286;2024-03-07T15:33:52;11.40;99.90
22738;DHT22;11536;50.860;4.286;2024-03-07T15:36:18;11.40;99.90
22738;DHT22;11536;50.860;4.286;2024-03-07T15:38:45;11.30;99.90
22738;DHT22;11536;50.860;4.286;2024-03-07T15:41:10;11.40;99.90
22738;DHT22;11536;50.860;4.286;2024-03-07T15:43:41;11.40;99.90
22738;DHT22;11536;50.860;4.286;2024-03-07T15:46:08;11.40;99.90
22738;DHT22;11536;50.860;4.286;2024-03-07T15:48:36;11.40;99.90
22738;DHT22;11536;50.860;4.286;2024-03-07T15:51:02;11.30;99.90
22738;DHT22;11536;50.860;4.286;2024-03-07T15:53:32;11.30;99.90
22738;DHT22;11536;50.860;4.286;2024-03-07T15:56:00;11.30;99.90
22738;DHT22;11536;50.860;4.286;2024-03-07T15:58:26;11.30;99.90
22738;DHT22;11536;50.860;4.286;2024-03-07T16:00:52;11.30;99.90
22738;DHT22;11536;50.860;4.286;2024-03-07T16:03:18;11.30;99.90
22738;DHT22;11536;50.860;4.286;2024-03-07T16:05:43;11.20;99.90
22738;DHT22;11536;50.860;4.286;2024-03-07T16:08:10;11.10;99.90
22738;DHT22;11536;50.860;4.286;2024-03-07T16:10:37;11.10;99.90
22738;DHT22;11536;50.860;4.286;2024-03-07T16:13:06;11.00;99.90
22738;DHT22;11536;50.860;4.286;2024-03-07T16:15:33;11.00;99.90
22738;DHT22;11536;50.860;4.286;2024-03-07T16:17:59;11.10;99.90
22738;DHT22;11536;50.860;4.286;2024-03-07T16:20:26;11.10;99.90